Time;durP1;ratioP1;P1;durP2;ratioP2;P2;SDS_P1;SDS_P2;PMS_P1;PMS_P2;Temp;Humidity;BMP_temperature;BMP_pressure;BME280_temperature;BME280_humidity;BME280_pressure;Samples;Min_cycle;Max_cycle;Signal;HPM_P1;HPM_P2
2021/01/24 00:00:31;;;;;;;1.77;1.20;;;15.80;64.90;;;;;;6308760;22;19999;-76
2021/01/24 00:03:00;;;;;;;2.35;1.42;;;15.80;64.90;;;;;;6308907;22;20033;-77
2021/01/24 00:05:26;;;;;;;2.10;0.98;;;15.80;64.90;;;;;;6280628;22;20007;-76
2021/01/24 00:07:51;;;;;;;2.40;1.13;;;15.80;64.90;;;;;;6308801;22;20417;-76
2021/01/24 00:10:17;;;;;;;2.05;1.10;;;15.80;65.00;;;;;;6306926;22;20059;-76
2021/01/24 00:12:47;;;;;;;3.20;1.17;;;15.80;65.00;;;;;;6308738;22;20105;-74
2021/01/24 00:15:13;;;;;;;1.92;1.00;;;15.80;65.00;;;;;;6281379;22;20007;-75
2021/01/24 00:17:39;;;;;;;1.98;1.13;;;15.80;65.00;;;;;;6308721;22;20049;-75
2021/01/24 00:20:05;;;;;;;3.22;1.10;;;15.80;65.00;;;;;;6281391;22;20344;-76
2021/01/24 00:22:31;;;;;;;3.90;1.38;;;15.80;65.00;;;;;;6281084;22;20078;-76
2021/01/24 00:24:57;;;;;;;3.17;1.48;;;15.70;65.00;;;;;;6307133;22;20432;-76
2021/01/24 00:27:23;;;;;;;2.53;1.10;;;15.80;65.00;;;;;;6281027;22;20003;-76
2021/01/24 00:29:53;;;;;;;1.88;1.13;;;15.80;65.00;;;;;;6281077;22;20003;-76
2021/01/24 00:32:19;;;;;;;4.20;1.70;;;15.80;65.00;;;;;;6308072;22;20010;-76
2021/01/24 00:34:44;;;;;;;5.15;1.20;;;15.80;65.00;;;;;;6308556;22;19995;-76
2021/01/24 00:37:12;;;;;;;3.22;1.08;;;15.70;65.00;;;;;;6307025;22;20003;-75
2021/01/24 00:39:42;;;;;;;2.50;1.30;;;15.80;65.00;;;;;;6308447;22;19999;-75
2021/01/24 00:42:08;;;;;;;3.03;1.30;;;15.80;65.00;;;;;;6280747;22;20015;-75
2021/01/24 00:44:34;;;;;;;4.75;1.40;;;15.80;65.00;;;;;;6308437;22;19998;-76
2021/01/24 00:46:59;;;;;;;1.85;0.98;;;15.80;65.00;;;;;;6307945;22;20015;-76
2021/01/24 00:49:25;;;;;;;3.25;1.52;;;15.70;65.00;;;;;;6306155;22;20046;-76
2021/01/24 00:51:51;;;;;;;2.65;1.38;;;15.70;65.00;;;;;;6306860;22;19999;-76
2021/01/24 00:54:17;;;;;;;3.65;1.27;;;15.70;65.00;;;;;;6306367;22;20408;-76
2021/01/24 00:56:42;;;;;;;1.80;1.10;;;15.70;65.00;;;;;;6308188;22;20298;-76
2021/01/24 00:59:08;;;;;;;4.78;1.40;;;15.80;65.00;;;;;;6306468;22;20321;-76
2021/01/24 01:01:34;;;;;;;1.80;1.00;;;15.70;65.00;;;;;;6281070;22;20395;-75
2021/01/24 01:03:59;;;;;;;2.35;0.95;;;15.70;65.00;;;;;;6307934;22;20325;-76
2021/01/24 01:06:25;;;;;;;2.28;1.08;;;15.70;65.00;;;;;;6307529;22;20413;-76
2021/01/24 01:08:55;;;;;;;3.33;1.25;;;15.70;65.00;;;;;;6280614;22;20006;-75
2021/01/24 01:11:25;;;;;;;2.42;1.10;;;15.70;65.00;;;;;;6280760;22;20006;-76
2021/01/24 01:13:51;;;;;;;1.88;1.17;;;15.70;65.00;;;;;;6307994;22;20000;-76
2021/01/24 01:16:17;;;;;;;5.07;1.95;;;15.70;64.90;;;;;;6280511;22;20409;-75
2021/01/24 01:18:42;;;;;;;2.88;1.05;;;15.80;65.00;;;;;;6308019;22;20063;-76
2021/01/24 01:21:08;;;;;;;3.97;1.30;;;15.70;65.00;;;;;;6306261;22;20105;-76
2021/01/24 01:23:33;;;;;;;2.80;1.15;;;15.70;65.00;;;;;;6307819;22;20002;-76
2021/01/24 01:25:59;;;;;;;2.15;1.02;;;15.80;64.90;;;;;;6306208;22;20003;-76
2021/01/24 01:28:25;;;;;;;2.60;1.40;;;15.70;64.90;;;;;;6308030;22;20007;-75
2021/01/24 01:30:55;;;;;;;3.58;1.50;;;15.70;64.90;;;;;;6280444;22;20011;-76
2021/01/24 01:33:21;;;;;;;4.22;1.15;;;15.70;64.90;;;;;;6280847;22;20006;-76
2021/01/24 01:35:46;;;;;;;3.78;1.30;;;15.80;64.90;;;;;;6280048;22;20329;-75
2021/01/24 01:38:12;;;;;;;2.28;1.10;;;15.70;64.90;;;;;;6307777;22;19995;-76
2021/01/24 01:40:51;;;;;;;3.30;1.40;;;15.70;64.80;;;;;;6279955;22;20421;-75
2021/01/24 01:43:17;;;;;;;3.13;0.98;;;15.70;64.80;;;;;;6307861;22;20007;-76
2021/01/24 01:45:43;;;;;;;2.15;1.20;;;15.70;64.80;;;;;;6307213;22;20011;-75
2021/01/24 01:48:09;;;;;;;2.65;1.10;;;15.80;64.80;;;;;;6307968;22;20425;-76
2021/01/24 01:50:38;;;;;;;2.40;1.33;;;15.80;64.70;;;;;;6307318;22;20078;-76
2021/01/24 01:53:06;;;;;;;2.17;1.25;;;15.80;64.70;;;;;;6307927;22;20007;-76
2021/01/24 01:55:32;;;;;;;2.20;0.98;;;15.80;64.70;;;;;;6268222;22;19999;-76
2021/01/24 01:58:02;;;;;;;1.70;1.15;;;15.80;64.60;;;;;;6305913;22;20010;-76
2021/01/24 02:00:28;;;;;;;1.77;1.00;;;15.80;64.60;;;;;;6280279;22;20448;-76
2021/01/24 02:03:20;;;;;;;5.68;1.80;;;15.80;64.60;;;;;;6307712;22;19999;-76
2021/01/24 02:05:58;;;;;;;2.72;1.17;;;15.80;64.50;;;;;;6279952;22;20133;-75
2021/01/24 02:09:01;;;;;;;1.80;1.17;;;15.80;64.50;;;;;;6280415;22;20004;-76
2021/01/24 02:11:36;;;;;;;1.60;1.10;;;15.80;64.40;;;;;;6307104;22;20003;-76
2021/01/24 02:14:14;;;;;;;2.53;1.10;;;15.80;64.40;;;;;;6280284;22;20317;-76
2021/01/24 02:16:44;;;;;;;4.75;1.48;;;15.90;64.40;;;;;;6307380;22;20328;-76
2021/01/24 02:19:35;;;;;;;1.30;0.93;;;15.80;64.30;;;;;;6305521;22;20448;-76
2021/01/24 02:22:04;;;;;;;3.13;1.30;;;15.80;64.30;;;;;;6307210;22;20048;-76
2021/01/24 02:24:57;;;;;;;1.60;0.88;;;15.90;64.30;;;;;;6307028;22;19996;-75
2021/01/24 02:27:40;;;;;;;1.92;1.23;;;15.80;64.30;;;;;;6306686;22;19996;-76
2021/01/24 02:30:37;;;;;;;3.50;1.25;;;15.80;64.20;;;;;;6307493;22;20007;-76
2021/01/24 02:33:11;;;;;;;1.67;0.98;;;15.90;64.20;;;;;;6307429;22;20030;-76
2021/01/24 02:35:41;;;;;;;0.95;0.73;;;15.80;64.20;;;;;;6307142;22;20010;-76
2021/01/24 02:38:08;;;;;;;4.68;1.50;;;15.80;64.20;;;;;;6307297;22;19999;-76
2021/01/24 02:40:36;;;;;;;2.10;1.00;;;15.80;64.20;;;;;;6306709;22;20003;-76
2021/01/24 02:43:05;;;;;;;1.73;1.15;;;15.80;64.20;;;;;;6307224;22;19995;-76
2021/01/24 02:45:39;;;;;;;4.85;1.20;;;15.80;64.20;;;;;;6306996;22;20129;-76
2021/01/24 02:48:08;;;;;;;4.05;1.55;;;15.80;64.20;;;;;;6307361;22;20071;-76
2021/01/24 02:50:35;;;;;;;1.60;0.90;;;15.90;64.30;;;;;;6306565;22;20003;-75
2021/01/24 02:53:05;;;;;;;3.05;1.08;;;15.80;64.20;;;;;;6279896;22;20003;-76
2021/01/24 02:55:36;;;;;;;1.05;0.70;;;15.80;64.30;;;;;;6306626;22;19999;-76
2021/01/24 02:58:02;;;;;;;2.35;1.40;;;15.80;64.30;;;;;;6307042;22;20013;-76
2021/01/24 03:00:31;;;;;;;1.55;0.75;;;15.80;64.30;;;;;;6280099;22;20314;-76
2021/01/24 03:02:57;;;;;;;1.65;1.08;;;15.80;64.30;;;;;;6306787;22;20006;-76
2021/01/24 03:05:24;;;;;;;1.67;1.10;;;15.80;64.30;;;;;;6278808;22;20007;-76
2021/01/24 03:07:50;;;;;;;1.75;0.80;;;15.80;64.40;;;;;;6306102;22;20488;-76
2021/01/24 03:10:21;;;;;;;2.20;0.98;;;15.80;64.40;;;;;;6278893;22;20031;-76
2021/01/24 03:13:14;;;;;;;2.05;1.33;;;15.80;64.40;;;;;;6279691;22;20044;-76
2021/01/24 03:15:43;;;;;;;2.75;0.90;;;15.80;64.40;;;;;;6306564;22;20372;-76
2021/01/24 03:18:14;;;;;;;2.28;0.93;;;15.80;64.40;;;;;;6305822;22;20371;-76
2021/01/24 03:20:45;;;;;;;2.25;1.23;;;15.80;64.50;;;;;;6306230;22;20065;-76
2021/01/24 03:23:12;;;;;;;1.88;1.00;;;15.80;64.50;;;;;;6306865;22;19998;-76
2021/01/24 03:25:42;;;;;;;1.60;0.80;;;15.80;64.50;;;;;;6279241;22;19999;-75
2021/01/24 03:28:10;;;;;;;1.55;0.90;;;15.70;64.50;;;;;;6279707;22;20003;-76
2021/01/24 03:30:36;;;;;;;2.85;1.08;;;15.80;64.60;;;;;;6306839;22;20078;-76
2021/01/24 03:33:06;;;;;;;1.50;0.90;;;15.70;64.60;;;;;;6309552;22;20506;-76
2021/01/24 03:35:36;;;;;;;2.35;0.88;;;15.70;64.60;;;;;;6308406;22;20432;-76
2021/01/24 03:38:02;;;;;;;2.05;1.15;;;15.70;64.60;;;;;;6309906;22;19998;-76
2021/01/24 03:40:28;;;;;;;0.95;0.80;;;15.70;64.60;;;;;;6282316;22;20007;-74
2021/01/24 03:42:53;;;;;;;2.95;1.20;;;15.70;64.60;;;;;;6309426;22;20040;-75
2021/01/24 03:45:19;;;;;;;2.35;0.90;;;15.70;64.60;;;;;;6308515;22;20025;-76
2021/01/24 03:47:45;;;;;;;2.17;1.25;;;15.70;64.60;;;;;;6308551;22;20052;-76
2021/01/24 03:50:11;;;;;;;2.25;0.93;;;15.70;64.60;;;;;;6310549;22;20074;-76
2021/01/24 03:52:37;;;;;;;2.42;1.00;;;15.70;64.60;;;;;;6309994;22;20010;-76
2021/01/24 03:55:04;;;;;;;1.77;0.90;;;15.70;64.60;;;;;;6282920;22;20082;-76
2021/01/24 03:57:29;;;;;;;1.75;1.13;;;15.70;64.60;;;;;;6309800;22;20022;-76
2021/01/24 03:59:59;;;;;;;1.95;1.10;;;15.70;64.60;;;;;;6310071;22;20421;-76
2021/01/24 04:02:25;;;;;;;2.15;0.85;;;15.70;64.60;;;;;;6283139;22;20097;-75
2021/01/24 04:04:51;;;;;;;1.75;0.88;;;15.70;64.60;;;;;;6309575;22;20441;-75
2021/01/24 04:07:17;;;;;;;1.77;0.90;;;15.70;64.60;;;;;;6310433;22;19999;-76
2021/01/24 04:09:43;;;;;;;1.15;0.90;;;15.70;64.60;;;;;;6310084;22;19999;-76
2021/01/24 04:12:09;;;;;;;1.75;1.00;;;15.70;64.70;;;;;;6282593;22;20527;-76
2021/01/24 04:14:35;;;;;;;1.92;0.70;;;15.70;64.60;;;;;;6308801;22;20009;-76
2021/01/24 04:17:02;;;;;;;2.90;1.00;;;15.60;64.70;;;;;;6310075;22;20074;-75
2021/01/24 04:19:28;;;;;;;1.83;0.95;;;15.60;64.70;;;;;;6282460;22;20007;-76
2021/01/24 04:21:56;;;;;;;1.23;0.88;;;15.60;64.80;;;;;;6309836;22;20061;-75
2021/01/24 04:24:23;;;;;;;2.65;1.02;;;15.70;64.70;;;;;;6310207;22;19995;-76
2021/01/24 04:26:49;;;;;;;1.90;1.20;;;15.60;64.70;;;;;;6309948;22;20313;-76
2021/01/24 04:29:15;;;;;;;3.10;1.25;;;15.60;64.70;;;;;;6309686;22;20003;-76
2021/01/24 04:31:43;;;;;;;1.05;0.88;;;15.70;64.70;;;;;;6283066;22;20401;-76
2021/01/24 04:34:09;;;;;;;;;;;15.70;64.70;;;;;;6310031;22;20048;-76
2021/01/24 04:36:39;;;;;;;1.85;0.80;;;15.60;64.70;;;;;;6308525;22;19903;-76
2021/01/24 04:39:06;;;;;;;1.58;0.85;;;15.60;64.70;;;;;;6282811;22;20003;-76
2021/01/24 04:41:35;;;;;;;1.05;0.77;;;15.60;64.70;;;;;;6282382;22;20003;-75
2021/01/24 04:44:16;;;;;;;3.50;1.20;;;15.60;64.70;;;;;;6308610;22;20052;-76
2021/01/24 04:46:47;;;;;;;2.35;0.77;;;15.60;64.60;;;;;;6310979;22;20023;-76
2021/01/24 04:49:13;;;;;;;1.80;1.05;;;15.70;64.60;;;;;;6281002;22;20463;-76
2021/01/24 04:51:39;;;;;;;2.40;0.80;;;15.70;64.50;;;;;;6308061;22;20000;-75
2021/01/24 04:54:05;;;;;;;1.92;1.10;;;15.70;64.40;;;;;;6306480;22;19995;-76
2021/01/24 04:56:34;;;;;;;2.20;0.95;;;15.70;64.30;;;;;;6280426;22;20010;-75
2021/01/24 04:59:00;;;;;;;2.05;0.90;;;15.80;64.30;;;;;;6307839;22;20007;-75
2021/01/24 05:01:29;;;;;;;2.65;0.77;;;15.80;64.20;;;;;;6280525;22;20003;-75
2021/01/24 05:03:54;;;;;;;1.02;0.77;;;15.80;64.20;;;;;;6308425;22;19995;-75
2021/01/24 05:06:21;;;;;;;2.40;1.20;;;15.80;64.20;;;;;;6306732;22;20000;-76
2021/01/24 05:08:46;;;;;;;1.45;0.98;;;15.70;64.10;;;;;;6308201;22;20009;-76
2021/01/24 05:11:17;;;;;;;2.95;1.20;;;15.80;64.10;;;;;;6307650;22;20082;-76
2021/01/24 05:13:42;;;;;;;2.08;1.00;;;15.80;64.00;;;;;;6308340;22;20006;-76
2021/01/24 05:16:08;;;;;;;1.98;0.80;;;15.80;64.00;;;;;;6307673;22;20082;-75
2021/01/24 05:18:35;;;;;;;1.40;0.73;;;15.80;64.00;;;;;;6308082;22;20007;-76
2021/01/24 05:21:04;;;;;;;1.77;1.17;;;15.80;64.00;;;;;;6307655;22;20030;-76
2021/01/24 05:23:30;;;;;;;2.08;0.90;;;15.80;64.00;;;;;;6306339;22;20010;-75
2021/01/24 05:25:57;;;;;;;1.10;0.73;;;15.80;63.90;;;;;;6307749;22;20317;-75
2021/01/24 05:28:26;;;;;;;1.05;0.90;;;15.80;63.90;;;;;;6307829;22;19999;-75
2021/01/24 05:31:04;;;;;;;1.27;0.75;;;15.80;63.90;;;;;;6307860;22;20010;-75
2021/01/24 05:33:29;;;;;;;1.85;1.10;;;15.80;63.90;;;;;;6307726;22;20010;-76
2021/01/24 05:35:55;;;;;;;1.65;0.98;;;15.80;63.90;;;;;;6307313;22;20003;-75
2021/01/24 05:38:26;;;;;;;1.40;0.80;;;15.80;63.90;;;;;;6305466;22;20476;-76
2021/01/24 05:40:51;;;;;;;1.75;1.05;;;15.80;63.90;;;;;;6306940;22;20003;-76
2021/01/24 05:43:17;;;;;;;1.52;1.00;;;15.80;63.90;;;;;;6307913;22;20097;-76
2021/01/24 05:45:44;;;;;;;1.85;0.73;;;15.80;63.90;;;;;;6280201;22;19999;-75
2021/01/24 05:48:09;;;;;;;2.13;1.70;;;15.80;63.90;;;;;;6280424;22;20006;-75
2021/01/24 05:50:35;;;;;;;1.35;0.73;;;15.80;63.90;;;;;;6306015;22;19999;-76
2021/01/24 05:53:06;;;;;;;2.92;0.88;;;15.80;64.00;;;;;;6280327;22;20010;-75
2021/01/24 05:55:34;;;;;;;2.80;1.23;;;15.80;64.00;;;;;;6279278;22;20004;-76
2021/01/24 05:58:20;;;;;;;;;;;15.80;64.00;;;;;;6280510;22;20325;-76
2021/01/24 06:00:47;;;;;;;1.10;0.80;;;15.80;64.00;;;;;;6306789;22;20301;-76
2021/01/24 06:03:14;;;;;;;2.13;1.25;;;15.80;64.00;;;;;;6307330;22;20002;-76
2021/01/24 06:05:40;;;;;;;1.05;0.63;;;15.70;64.10;;;;;;6279597;22;20003;-76
2021/01/24 06:08:11;;;;;;;1.52;0.85;;;15.70;64.20;;;;;;6307101;22;20420;-76
2021/01/24 06:10:43;;;;;;;1.67;1.00;;;15.70;64.20;;;;;;6307680;22;19999;-76
2021/01/24 06:13:33;;;;;;;2.60;0.70;;;15.70;64.20;;;;;;6306904;22;20388;-75
2021/01/24 06:18:39;;;;;;;1.10;0.80;;;15.70;64.30;;;;;;6249765;22;20101;-76
2021/01/24 06:21:06;;;;;;;;;;;15.70;64.30;;;;;;6337276;22;20079;-77
2021/01/24 06:23:46;;;;;;;3.95;1.00;;;15.70;64.30;;;;;;6338086;22;19902;-78
2021/01/24 06:26:16;;;;;;;2.75;0.90;;;15.70;64.30;;;;;;6338265;22;20094;-78
2021/01/24 06:29:11;;;;;;;1.30;0.95;;;15.70;64.40;;;;;;6338162;22;20025;-77
2021/01/24 06:31:48;;;;;;;2.30;1.00;;;15.70;64.40;;;;;;6325914;22;20002;-76
2021/01/24 06:34:16;;;;;;;1.55;0.90;;;15.60;64.40;;;;;;6338094;22;19998;-76
2021/01/24 06:37:21;;;;;;;2.25;1.17;;;15.60;64.40;;;;;;6338807;22;20045;-78
2021/01/24 06:40:01;;;;;;;3.58;1.10;;;15.60;64.40;;;;;;6335500;22;20030;-76
2021/01/24 06:42:42;;;;;;;2.78;0.95;;;15.60;64.40;;;;;;6310627;22;20029;-75
2021/01/24 06:45:34;;;;;;;2.13;0.93;;;15.60;64.50;;;;;;6311078;22;20007;-75
2021/01/24 06:48:01;;;;;;;2.03;1.20;;;15.60;64.40;;;;;;6314937;22;20034;-75
2021/01/24 06:50:56;;;;;;;2.20;0.97;;;15.60;64.40;;;;;;6338034;22;20002;-75
2021/01/24 06:53:27;;;;;;;1.75;0.95;;;15.60;64.50;;;;;;6338212;22;19999;-76
2021/01/24 06:56:05;;;;;;;0.90;0.60;;;15.60;64.50;;;;;;6338569;22;20302;-76
2021/01/24 06:58:36;;;;;;;;;;;15.60;64.50;;;;;;6338996;22;20376;-75
2021/01/24 07:01:39;;;;;;;1.83;0.70;;;15.70;64.50;;;;;;6338280;22;19967;-76
2021/01/24 07:04:20;;;;;;;1.52;0.77;;;15.60;64.50;;;;;;6338179;22;19998;-76
2021/01/24 07:06:50;;;;;;;0.95;0.60;;;15.60;64.50;;;;;;6338560;22;20022;-75
2021/01/24 07:09:27;;;;;;;1.95;0.77;;;15.60;64.50;;;;;;6337695;22;20097;-76
2021/01/24 07:11:58;;;;;;;1.75;0.80;;;15.60;64.40;;;;;;6337959;22;20388;-76
2021/01/24 07:14:32;;;;;;;2.60;1.00;;;15.60;64.50;;;;;;6338369;22;20003;-76
2021/01/24 07:17:11;;;;;;;1.15;0.77;;;15.60;64.50;;;;;;6337805;22;20379;-76
2021/01/24 07:19:41;;;;;;;3.47;1.08;;;15.60;64.40;;;;;;6337615;22;20077;-76
2021/01/24 07:22:15;;;;;;;1.20;0.68;;;15.60;64.40;;;;;;6338216;22;20084;-75
2021/01/24 07:24:58;;;;;;;1.83;0.70;;;15.60;64.40;;;;;;6309740;22;20009;-76
2021/01/24 07:27:33;;;;;;;1.73;0.88;;;15.60;64.40;;;;;;6311840;22;20333;-76
2021/01/24 07:30:05;;;;;;;3.75;1.08;;;15.60;64.30;;;;;;6338154;22;20006;-76
2021/01/24 07:32:34;;;;;;;1.60;0.93;;;15.60;64.40;;;;;;6337693;22;19999;-75
2021/01/24 07:35:00;;;;;;;1.25;0.80;;;15.60;64.30;;;;;;6337636;22;20003;-75
2021/01/24 07:37:26;;;;;;;1.58;1.00;;;15.60;64.40;;;;;;6338435;22;20325;-75
2021/01/24 07:39:53;;;;;;;1.52;1.00;;;15.60;64.30;;;;;;6336653;22;20003;-76
2021/01/24 07:42:20;;;;;;;2.28;0.90;;;15.70;64.30;;;;;;6337889;22;20422;-76
2021/01/24 07:44:51;;;;;;;0.90;0.63;;;15.70;64.20;;;;;;6338202;22;20007;-76
2021/01/24 07:47:22;;;;;;;1.50;0.88;;;15.70;64.20;;;;;;6337923;22;20030;-76
2021/01/24 07:49:53;;;;;;;1.67;0.70;;;15.70;64.20;;;;;;6337786;22;20006;-76
2021/01/24 07:52:23;;;;;;;1.65;0.60;;;15.70;64.10;;;;;;6337623;22;20003;-76
2021/01/24 07:54:51;;;;;;;1.92;0.73;;;15.70;64.10;;;;;;6338106;22;20310;-76
2021/01/24 07:57:56;;;;;;;1.10;0.60;;;15.70;64.10;;;;;;6310846;22;20003;-75
2021/01/24 08:00:50;;;;;;;1.23;0.90;;;15.70;64.10;;;;;;6338058;22;20075;-76
2021/01/24 08:03:22;;;;;;;1.60;0.88;;;15.70;64.10;;;;;;6337503;22;20078;-76
2021/01/24 08:05:49;;;;;;;1.85;0.80;;;15.70;64.00;;;;;;6337438;22;20331;-76
2021/01/24 08:08:15;;;;;;;1.02;0.80;;;15.70;64.00;;;;;;6337185;22;20318;-76
2021/01/24 08:11:01;;;;;;;2.20;0.80;;;15.70;63.90;;;;;;6337552;22;20317;-75
2021/01/24 08:13:39;;;;;;;1.10;0.80;;;15.80;63.90;;;;;;6335255;22;19999;-77
2021/01/24 08:16:12;;;;;;;1.50;0.93;;;15.80;63.90;;;;;;6337639;22;19999;-77
2021/01/24 08:18:45;;;;;;;1.75;0.80;;;15.80;63.80;;;;;;6337500;22;20047;-76
2021/01/24 08:21:13;;;;;;;1.80;0.80;;;15.80;63.80;;;;;;6339165;22;20011;-76
2021/01/24 08:23:50;;;;;;;1.13;0.73;;;15.80;63.80;;;;;;6312807;22;20015;-76
2021/01/24 08:26:18;;;;;;;1.80;0.87;;;15.80;63.70;;;;;;6339334;22;20325;-77
2021/01/24 08:28:45;;;;;;;1.35;0.70;;;15.80;63.80;;;;;;6338751;22;20018;-76
2021/01/24 08:31:17;;;;;;;1.42;0.80;;;15.80;63.70;;;;;;6339090;22;20026;-76
2021/01/24 08:33:48;;;;;;;1.58;0.70;;;15.80;63.70;;;;;;6339227;22;19998;-75
2021/01/24 08:36:29;;;;;;;0.52;0.50;;;15.80;63.70;;;;;;6334817;22;20332;-76
2021/01/24 08:38:58;;;;;;;1.13;0.80;;;15.80;63.70;;;;;;6339036;22;20431;-78
2021/01/24 08:41:33;;;;;;;1.38;0.70;;;15.80;63.60;;;;;;6338228;22;20370;-75
2021/01/24 08:44:11;;;;;;;1.25;0.80;;;15.80;63.60;;;;;;6337529;22;20444;-77
2021/01/24 08:46:45;;;;;;;0.73;0.60;;;15.80;63.60;;;;;;6338982;22;20432;-77
2021/01/24 08:49:40;;;;;;;1.50;0.70;;;15.80;63.50;;;;;;6338725;22;20333;-76
2021/01/24 08:52:20;;;;;;;1.77;0.85;;;15.80;63.50;;;;;;6339080;22;20321;-77
2021/01/24 08:55:00;;;;;;;1.25;0.60;;;15.80;63.40;;;;;;6339598;22;20367;-77
2021/01/24 08:57:40;;;;;;;1.90;0.90;;;15.80;63.40;;;;;;6339143;22;20306;-76
2021/01/24 09:00:08;;;;;;;2.30;0.68;;;15.80;63.40;;;;;;6338380;22;20003;-76
2021/01/24 09:02:39;;;;;;;1.20;0.80;;;15.80;63.50;;;;;;6338924;22;20329;-78
2021/01/24 09:05:10;;;;;;;0.90;0.60;;;15.80;63.50;;;;;;6339120;22;20375;-77
2021/01/24 09:07:42;;;;;;;1.08;0.77;;;15.80;63.50;;;;;;6338645;22;20333;-75
2021/01/24 09:10:27;;;;;;;1.60;0.70;;;15.80;63.50;;;;;;6338791;22;20002;-77
2021/01/24 09:13:00;;;;;;;1.38;0.80;;;15.80;63.50;;;;;;6338377;22;20337;-77
2021/01/24 09:15:31;;;;;;;1.05;0.70;;;15.80;63.50;;;;;;6338903;22;20329;-76
2021/01/24 09:18:04;;;;;;;1.60;0.85;;;15.80;63.40;;;;;;6335623;22;20006;-77
2021/01/24 09:20:35;;;;;;;0.60;0.40;;;15.80;63.40;;;;;;6337015;22;20085;-76
2021/01/24 09:23:00;;;;;;;0.50;0.50;;;15.80;63.30;;;;;;6338638;22;20002;-77
2021/01/24 09:25:28;;;;;;;0.82;0.80;;;15.80;63.40;;;;;;6338807;22;20434;-76
2021/01/24 09:27:56;;;;;;;1.17;0.85;;;15.80;63.40;;;;;;6338161;22;20007;-76
2021/01/24 09:30:27;;;;;;;0.93;0.57;;;15.80;63.50;;;;;;6336520;22;20011;-73
2021/01/24 09:33:07;;;;;;;0.93;0.75;;;15.80;63.50;;;;;;6338325;22;19999;-78
2021/01/24 09:35:33;;;;;;;1.20;0.80;;;15.80;63.50;;;;;;6337193;22;20306;-76
2021/01/24 09:38:00;;;;;;;1.08;0.63;;;15.80;63.40;;;;;;6337154;22;20009;-79
2021/01/24 09:40:26;;;;;;;1.15;0.70;;;15.80;61.20;;;;;;6306374;22;20013;-76
2021/01/24 09:42:55;;;;;;;1.38;0.63;;;15.80;51.40;;;;;;6336274;22;20029;-78
2021/01/24 09:45:21;;;;;;;9.82;0.90;;;15.50;43.80;;;;;;6337405;22;20098;-80
2021/01/24 09:47:48;;;;;;;2.47;0.65;;;15.20;42.40;;;;;;6337016;22;20006;-79
2021/01/24 09:50:22;;;;;;;1.10;0.70;;;15.00;45.60;;;;;;6337783;22;20003;-74
2021/01/24 09:52:54;;;;;;;3.85;0.60;;;15.00;51.10;;;;;;6338103;22;20419;-75
2021/01/24 09:55:25;;;;;;;3.33;0.70;;;15.10;51.50;;;;;;6338240;22;20003;-73
2021/01/24 09:57:56;;;;;;;1.20;0.60;;;15.30;52.50;;;;;;6338165;22;20369;-75
2021/01/24 10:00:25;;;;;;;3.65;0.93;;;15.50;53.50;;;;;;6338606;22;20003;-76
2021/01/24 10:02:58;;;;;;;5.03;0.70;;;15.80;55.20;;;;;;6338247;22;20030;-73
2021/01/24 10:05:24;;;;;;;2.75;0.57;;;16.00;58.20;;;;;;6338743;22;20318;-73
2021/01/24 10:07:56;;;;;;;1.80;0.70;;;16.20;60.30;;;;;;6338118;22;20492;-75
2021/01/24 10:10:27;;;;;;;2.40;1.13;;;16.40;61.60;;;;;;6338556;22;20074;-75
2021/01/24 10:12:58;;;;;;;1.60;0.98;;;16.50;63.20;;;;;;6338729;22;20002;-73
2021/01/24 10:15:29;;;;;;;3.10;0.88;;;16.70;64.40;;;;;;6338757;22;20337;-73
2021/01/24 10:17:55;;;;;;;2.50;0.65;;;16.80;66.00;;;;;;6338410;22;19998;-74
2021/01/24 10:20:21;;;;;;;5.47;1.05;;;16.90;67.30;;;;;;6293785;22;20016;-73
2021/01/24 10:22:47;;;;;;;4.05;0.90;;;17.00;68.60;;;;;;6305512;22;20056;-74
2021/01/24 10:25:17;;;;;;;8.00;1.02;;;17.00;70.10;;;;;;6307253;22;20057;-73
2021/01/24 10:27:45;;;;;;;1.42;0.80;;;17.00;70.90;;;;;;6279787;22;20090;-74
2021/01/24 10:30:13;;;;;;;2.25;0.95;;;17.10;72.30;;;;;;6279825;22;20011;-74
2021/01/24 10:32:45;;;;;;;10.30;1.30;;;17.10;73.60;;;;;;6306615;22;20344;-72
2021/01/24 10:35:11;;;;;;;5.45;1.20;;;17.10;74.50;;;;;;6306541;22;20072;-73
2021/01/24 10:37:44;;;;;;;5.50;1.52;;;17.10;75.40;;;;;;6307204;22;20003;-73
2021/01/24 10:40:15;;;;;;;2.90;1.50;;;17.10;76.10;;;;;;6306842;22;20007;-72
2021/01/24 10:42:41;;;;;;;5.00;1.45;;;17.20;77.10;;;;;;6306197;22;20025;-72
2021/01/24 10:45:12;;;;;;;2.70;1.25;;;17.10;77.20;;;;;;6307098;22;20425;-74
2021/01/24 10:47:41;;;;;;;3.30;1.27;;;17.20;76.30;;;;;;6305876;22;20003;-73
2021/01/24 10:50:09;;;;;;;4.75;1.23;;;17.10;75.50;;;;;;6304741;22;20383;-72
2021/01/24 10:52:35;;;;;;;3.78;0.80;;;17.00;74.90;;;;;;6304999;22;20333;-73
2021/01/24 10:55:02;;;;;;;4.28;1.52;;;17.00;74.40;;;;;;6304664;22;20033;-72
2021/01/24 10:57:35;;;;;;;5.88;1.92;;;16.90;73.80;;;;;;6303150;22;20003;-72
2021/01/24 11:00:03;;;;;;;6.80;1.20;;;16.90;73.40;;;;;;6305422;22;20441;-72
2021/01/24 11:02:34;;;;;;;2.88;1.08;;;16.90;73.00;;;;;;6306531;22;20008;-73
2021/01/24 11:05:04;;;;;;;2.38;1.17;;;16.80;72.70;;;;;;6279970;22;20007;-74
2021/01/24 11:07:30;;;;;;;5.03;1.48;;;16.80;72.40;;;;;;6280074;22;20053;-75
2021/01/24 11:10:05;;;;;;;3.80;1.58;;;16.80;72.20;;;;;;6305703;22;20425;-74
2021/01/24 11:12:32;;;;;;;3.42;1.10;;;16.80;72.00;;;;;;6306872;22;19999;-74
2021/01/24 11:14:58;;;;;;;3.15;1.17;;;16.80;71.80;;;;;;6279721;22;20003;-74
2021/01/24 11:17:24;;;;;;;1.92;0.93;;;16.70;71.50;;;;;;6307023;22;20322;-74
2021/01/24 11:19:56;;;;;;;5.88;1.63;;;16.70;71.40;;;;;;6305975;22;20080;-74
2021/01/24 11:22:23;;;;;;;4.47;1.10;;;16.70;71.10;;;;;;6280487;22;20008;-75
2021/01/24 11:24:52;;;;;;;2.75;1.13;;;16.70;71.00;;;;;;6306134;22;20003;-75
2021/01/24 11:27:23;;;;;;;8.38;1.45;;;16.60;70.80;;;;;;6306324;22;20072;-74
2021/01/24 11:29:49;;;;;;;5.25;1.45;;;16.60;70.70;;;;;;6297071;22;20103;-75
2021/01/24 11:32:20;;;;;;;2.30;1.35;;;16.60;70.50;;;;;;6306872;22;19999;-74
2021/01/24 11:35:01;;;;;;;3.63;1.10;;;16.60;70.40;;;;;;6304743;22;20333;-74
2021/01/24 11:37:34;;;;;;;1.77;1.02;;;16.60;70.30;;;;;;6305007;22;20325;-74
2021/01/24 11:40:06;;;;;;;2.53;1.13;;;16.60;70.10;;;;;;6306287;22;20007;-74
2021/01/24 11:42:33;;;;;;;4.22;1.20;;;16.60;69.90;;;;;;6279437;22;20375;-74
2021/01/24 11:45:05;;;;;;;4.55;1.10;;;16.60;69.70;;;;;;6304572;22;20007;-74
2021/01/24 11:47:35;;;;;;;3.08;1.42;;;16.60;69.70;;;;;;6305001;22;20007;-74
2021/01/24 11:50:01;;;;;;;7.75;1.17;;;16.60;69.60;;;;;;6305115;22;20011;-74
2021/01/24 11:52:32;;;;;;;3.03;1.00;;;16.50;69.60;;;;;;6306960;22;20329;-74
2021/01/24 11:55:02;;;;;;;1.63;1.00;;;16.50;69.50;;;;;;6307992;22;19999;-73
2021/01/24 11:57:33;;;;;;;2.47;1.08;;;16.50;69.40;;;;;;6307962;22;20431;-74
2021/01/24 12:00:00;;;;;;;3.88;1.10;;;16.50;69.30;;;;;;6308931;22;20307;-74
2021/01/24 12:02:31;;;;;;;5.07;1.08;;;16.50;69.20;;;;;;6308295;22;20007;-74
2021/01/24 12:05:02;;;;;;;2.15;0.73;;;16.50;69.10;;;;;;6272201;22;20030;-74
2021/01/24 12:07:32;;;;;;;2.35;1.38;;;16.40;69.00;;;;;;6308675;22;19999;-74
2021/01/24 12:10:04;;;;;;;3.80;1.10;;;16.50;69.00;;;;;;6308483;22;20003;-74
2021/01/24 12:12:46;;;;;;;2.53;0.80;;;16.40;69.00;;;;;;6308321;22;20003;-74
2021/01/24 12:15:17;;;;;;;1.17;0.65;;;16.40;68.80;;;;;;6308252;22;19999;-76
2021/01/24 12:17:55;;;;;;;2.47;1.13;;;16.40;68.80;;;;;;6308177;22;20341;-74
2021/01/24 12:20:26;;;;;;;2.08;1.00;;;16.40;68.60;;;;;;6306583;22;20090;-74
2021/01/24 12:22:55;;;;;;;3.05;1.15;;;16.50;68.50;;;;;;6308575;22;20376;-75
2021/01/24 12:25:26;;;;;;;2.75;1.05;;;16.40;68.40;;;;;;6308256;22;20007;-74
2021/01/24 12:27:52;;;;;;;1.92;0.90;;;16.40;68.30;;;;;;6308412;22;20074;-76
2021/01/24 12:30:21;;;;;;;3.22;1.38;;;16.40;68.20;;;;;;6308026;22;20464;-76
2021/01/24 12:33:11;;;;;;;2.95;1.27;;;16.40;68.20;;;;;;6307717;22;20314;-76
2021/01/24 12:35:42;;;;;;;4.60;1.25;;;16.40;68.20;;;;;;6308510;22;20329;-76
2021/01/24 12:38:13;;;;;;;4.05;1.13;;;16.30;68.00;;;;;;6308048;22;20306;-75
2021/01/24 12:40:44;;;;;;;1.48;0.93;;;16.30;68.00;;;;;;6306441;22;20315;-76
2021/01/24 12:43:10;;;;;;;3.55;0.90;;;16.30;68.00;;;;;;6308283;22;20027;-75
2021/01/24 12:45:35;;;;;;;2.80;1.13;;;16.30;68.20;;;;;;6280840;22;20064;-75
2021/01/24 12:48:01;;;;;;;2.13;1.08;;;16.30;68.30;;;;;;6306101;22;20018;-78
2021/01/24 12:50:29;;;;;;;3.78;1.00;;;16.30;68.10;;;;;;6308006;22;20014;-78
2021/01/24 12:52:55;;;;;;;;;;;16.30;67.80;;;;;;6308653;22;19995;-78
2021/01/24 12:55:21;;;;;;;2.25;0.88;;;16.30;67.90;;;;;;6307933;22;19906;-77
2021/01/24 12:57:53;;;;;;;3.35;1.08;;;16.20;67.80;;;;;;6307984;22;19999;-79
2021/01/24 13:00:24;;;;;;;2.55;0.85;;;16.30;67.70;;;;;;6307964;22;20003;-78
2021/01/24 13:02:50;;;;;;;1.63;0.82;;;16.20;67.60;;;;;;6307652;22;20034;-78
2021/01/24 13:05:16;;;;;;;2.60;1.35;;;16.20;67.80;;;;;;6307612;22;20425;-76
2021/01/24 13:07:42;;;;;;;1.27;0.90;;;16.20;67.60;;;;;;6307703;22;20007;-78